createdAt,value
2023-11-12T00:04:38.013Z,12
2023-11-12T00:10:08.166Z,17
2023-11-12T00:15:38.339Z,16
2023-11-12T00:21:08.511Z,14
2023-11-12T00:26:38.707Z,15
2023-11-12T00:32:09.000Z,14
2023-11-12T00:43:09.223Z,17
2023-11-12T00:48:39.392Z,13
2023-11-12T00:54:09.587Z,14
2023-11-12T00:59:39.735Z,15
2023-11-12T01:05:09.926Z,14
2023-11-12T01:10:40.101Z,17
2023-11-12T01:16:10.407Z,19
2023-11-12T01:21:40.446Z,20
2023-11-12T01:27:10.645Z,25
2023-11-12T01:32:40.823Z,22
2023-11-12T01:38:10.982Z,23
2023-11-12T01:43:41.159Z,22
2023-11-12T01:49:11.360Z,20
2023-11-12T01:54:41.553Z,24
2023-11-12T02:05:41.876Z,26
2023-11-12T02:11:12.048Z,25
2023-11-12T02:16:42.218Z,24
2023-11-12T02:22:12.396Z,25
2023-11-12T02:27:42.579Z,24
2023-11-12T02:44:13.089Z,23
2023-11-12T02:49:43.291Z,26
2023-11-12T02:55:13.461Z,27
2023-11-12T03:00:43.670Z,32
2023-11-12T03:06:13.822Z,30
2023-11-12T03:11:43.973Z,27
2023-11-12T03:17:14.175Z,26
2023-11-12T03:22:44.326Z,29
2023-11-12T03:28:14.506Z,25
2023-11-12T03:39:16.651Z,28
2023-11-12T03:44:46.834Z,27
2023-11-12T03:50:17.045Z,24
2023-11-12T03:55:47.206Z,25
2023-11-12T04:01:17.419Z,24
2023-11-12T04:06:47.546Z,25
2023-11-12T04:12:17.762Z,21
2023-11-12T04:17:47.895Z,25
2023-11-12T04:23:18.080Z,21
2023-11-12T04:28:48.246Z,22
2023-11-12T04:39:48.639Z,21
2023-11-12T04:45:18.840Z,26
2023-11-12T04:50:48.972Z,24
2023-11-12T05:01:49.345Z,22
2023-11-12T05:07:19.494Z,27
2023-11-12T05:18:19.827Z,26
2023-11-12T05:23:50.002Z,20
2023-11-12T05:29:20.173Z,26
2023-11-12T05:34:50.351Z,25
2023-11-12T05:40:20.538Z,24
2023-11-12T05:45:50.733Z,22
2023-11-12T06:02:21.218Z,24
2023-11-12T06:07:51.382Z,20
2023-11-12T06:13:21.563Z,23
2023-11-12T06:18:51.773Z,19
2023-11-12T06:24:21.929Z,17
2023-11-12T06:29:52.102Z,19
2023-11-12T06:35:22.279Z,18
2023-11-12T06:40:52.457Z,20
2023-11-12T06:46:22.677Z,18
2023-11-12T06:51:52.827Z,16
2023-11-12T06:57:22.999Z,18
2023-11-12T07:08:23.320Z,17
2023-11-12T07:13:53.491Z,18
2023-11-12T07:19:23.721Z,16
2023-11-12T07:24:53.846Z,17
2023-11-12T07:30:24.095Z,14
2023-11-12T07:35:54.773Z,15
2023-11-12T07:41:24.372Z,14
2023-11-12T07:46:54.619Z,17
2023-11-12T07:52:24.725Z,12
2023-11-12T07:57:54.884Z,15
2023-11-12T08:03:25.083Z,14
2023-11-12T08:14:25.410Z,15
2023-11-12T08:19:55.587Z,13
2023-11-12T08:25:25.776Z,16
2023-11-12T08:30:55.976Z,13
2023-11-12T08:36:26.119Z,14
2023-11-12T08:41:56.288Z,16
2023-11-12T08:47:26.541Z,13
2023-11-12T08:52:56.632Z,18
2023-11-12T08:58:26.792Z,14
2023-11-12T09:09:27.196Z,15
2023-11-12T09:14:57.326Z,13
2023-11-12T09:20:27.491Z,12
2023-11-12T09:25:57.668Z,11
2023-11-12T09:36:58.047Z,10
2023-11-12T09:42:28.277Z,11
2023-11-12T09:53:28.560Z,12
2023-11-12T09:58:58.772Z,11
2023-11-12T10:10:00.888Z,10
2023-11-12T10:21:03.054Z,9
2023-11-12T10:32:05.233Z,10
2023-11-12T10:37:35.386Z,12
2023-11-12T10:48:37.558Z,10
2023-11-12T10:54:07.733Z,12
2023-11-12T11:05:09.909Z,13
2023-11-12T11:16:12.164Z,9
2023-11-12T11:27:14.207Z,7
2023-11-12T11:38:16.375Z,10
2023-11-12T12:00:20.771Z,8
2023-11-12T12:11:22.863Z,11
2023-11-12T12:22:27.019Z,8
2023-11-12T12:55:31.519Z,6
2023-11-12T13:39:40.161Z,5
2023-11-12T13:45:10.321Z,4
2023-11-12T13:56:12.495Z,7
2023-11-12T14:01:42.688Z,6
2023-11-12T14:12:44.838Z,4
2023-11-12T14:18:15.011Z,9
2023-11-12T14:29:17.143Z,5
2023-11-12T14:40:19.344Z,6
2023-11-12T14:51:19.693Z,5
2023-11-12T15:02:21.844Z,6
2023-11-12T15:07:51.980Z,5
2023-11-12T15:35:26.487Z,6
2023-11-12T15:40:56.657Z,7
2023-11-12T15:51:58.871Z,6
2023-11-12T15:57:29.015Z,4
2023-11-12T16:02:59.562Z,5
2023-11-12T16:14:01.338Z,6
2023-11-12T16:25:01.717Z,9
2023-11-12T16:30:31.846Z,8
2023-11-12T16:36:02.014Z,7
2023-11-12T16:41:32.186Z,5
2023-11-12T16:52:34.348Z,6
2023-11-12T17:36:42.977Z,9
2023-11-12T17:47:45.150Z,7
2023-11-12T18:04:17.521Z,8
2023-11-12T18:15:17.807Z,7
2023-11-12T18:20:47.973Z,6
2023-11-12T18:26:18.147Z,7
2023-11-12T18:31:48.376Z,9
2023-11-12T18:42:48.669Z,4
2023-11-12T18:48:18.908Z,6
2023-11-12T18:53:48.987Z,5
2023-11-12T18:59:19.163Z,9
2023-11-12T19:04:49.381Z,6
2023-11-12T19:10:19.552Z,4
2023-11-12T19:15:49.717Z,5
2023-11-12T19:32:20.251Z,6
2023-11-12T19:43:20.552Z,7
2023-11-12T19:48:50.807Z,8
2023-11-12T19:54:20.921Z,7
2023-11-12T19:59:51.070Z,8
2023-11-12T20:05:21.223Z,6
2023-11-12T20:10:51.396Z,11
2023-11-12T20:16:21.643Z,10
2023-11-12T20:21:51.747Z,7
2023-11-12T20:27:21.912Z,5
2023-11-12T20:32:52.141Z,6
2023-11-12T20:43:52.463Z,7
2023-11-12T20:49:22.588Z,6
2023-11-12T21:05:53.095Z,4
2023-11-12T21:11:23.262Z,6
2023-11-12T21:22:23.641Z,5
2023-11-12T21:27:53.780Z,8
2023-11-12T21:33:23.953Z,6
2023-11-12T21:38:54.376Z,8
2023-11-12T21:44:24.302Z,7
2023-11-12T21:49:54.474Z,4
2023-11-12T21:55:24.675Z,5
2023-11-12T22:06:24.982Z,8
2023-11-12T22:11:55.160Z,6
2023-11-12T22:39:25.998Z,5
2023-11-12T22:44:56.165Z,7
2023-11-12T22:50:26.417Z,5
2023-11-12T22:55:56.531Z,6
2023-11-12T23:01:26.731Z,8
2023-11-12T23:06:56.890Z,6
2023-11-12T23:12:27.051Z,5
2023-11-12T23:17:57.244Z,6
2023-11-12T23:23:27.380Z,7
2023-11-12T23:28:57.544Z,6
2023-11-12T23:39:57.948Z,7
2023-11-12T23:45:28.083Z,5
2023-11-12T23:50:58.239Z,6
2023-11-12T23:56:28.414Z,4
